createdAt,value
2017-08-18T00:02:19.038Z,19.50
2017-08-18T00:04:46.552Z,19.50
2017-08-18T00:07:14.057Z,19.50
2017-08-18T00:15:27.699Z,19.50
2017-08-18T00:17:55.208Z,19.50
2017-08-18T00:20:22.716Z,19.50
2017-08-18T00:22:50.995Z,19.40
2017-08-18T00:25:18.506Z,19.40
2017-08-18T00:27:46.009Z,19.40
2017-08-18T00:30:14.283Z,19.40
2017-08-18T00:32:41.759Z,19.40
2017-08-18T00:35:09.260Z,19.40
2017-08-18T00:37:36.792Z,19.40
2017-08-18T00:40:04.280Z,19.40
2017-08-18T00:42:31.771Z,19.40
2017-08-18T00:44:59.283Z,19.40
2017-08-18T00:47:26.779Z,19.40
2017-08-18T00:49:54.276Z,19.40
2017-08-18T00:52:21.761Z,19.50
2017-08-18T00:54:49.252Z,19.50
2017-08-18T00:57:17.516Z,19.50
2017-08-18T00:59:45.039Z,19.50
2017-08-18T01:02:12.528Z,19.50
2017-08-18T01:04:40.019Z,19.50
2017-08-18T01:07:07.519Z,19.50
2017-08-18T01:09:35.025Z,19.50
2017-08-18T01:12:02.533Z,19.40
2017-08-18T01:14:30.017Z,19.40
2017-08-18T01:16:57.512Z,19.40
2017-08-18T01:19:25.005Z,19.40
2017-08-18T01:21:52.496Z,19.40
2017-08-18T01:24:20.022Z,19.40
2017-08-18T01:26:47.507Z,19.30
2017-08-18T01:29:14.999Z,19.30
2017-08-18T01:31:42.493Z,19.30
2017-08-18T01:34:09.984Z,19.30
2017-08-18T01:36:38.243Z,19.30
2017-08-18T01:39:05.743Z,19.20
2017-08-18T01:41:33.236Z,19.20
2017-08-18T01:44:00.726Z,19.30
2017-08-18T01:46:28.228Z,19.20
2017-08-18T01:48:55.725Z,19.20
2017-08-18T01:51:23.215Z,19.10
2017-08-18T01:53:51.476Z,18.90
2017-08-18T01:56:18.976Z,18.90
2017-08-18T01:58:46.487Z,18.90
2017-08-18T02:01:13.985Z,18.80
2017-08-18T02:03:41.476Z,18.80
2017-08-18T02:06:08.973Z,18.70
2017-08-18T02:08:36.472Z,18.70
2017-08-18T02:11:03.960Z,18.70
2017-08-18T02:13:31.451Z,18.70
2017-08-18T02:15:58.958Z,18.60
2017-08-18T02:18:26.448Z,18.60
2017-08-18T02:20:53.944Z,18.60
2017-08-18T02:23:21.444Z,18.60
2017-08-18T02:25:48.948Z,18.60
2017-08-18T02:28:16.471Z,18.60
2017-08-18T02:30:43.991Z,18.60
2017-08-18T02:33:11.483Z,18.70
2017-08-18T02:35:38.972Z,18.70
2017-08-18T02:38:07.247Z,18.80
2017-08-18T02:40:34.747Z,18.80
2017-08-18T02:43:02.241Z,18.80
2017-08-18T02:45:29.733Z,18.80
2017-08-18T02:47:57.239Z,18.90
2017-08-18T02:50:24.737Z,18.90
2017-08-18T02:52:52.231Z,18.90
2017-08-18T02:55:19.718Z,19.00
2017-08-18T02:57:47.195Z,19.00
2017-08-18T03:00:14.690Z,19.10
2017-08-18T03:02:42.180Z,19.10
2017-08-18T03:05:09.679Z,19.10
2017-08-18T03:07:37.167Z,19.10
2017-08-18T03:10:04.650Z,19.10
2017-08-18T03:12:32.152Z,19.10
2017-08-18T03:14:59.671Z,19.10
2017-08-18T03:17:27.160Z,19.10
2017-08-18T03:19:56.969Z,19.20
2017-08-18T03:22:24.465Z,19.20
2017-08-18T03:24:51.961Z,19.20
2017-08-18T03:27:19.460Z,19.10
2017-08-18T03:29:47.715Z,19.10
2017-08-18T03:32:15.203Z,19.10
2017-08-18T03:34:42.702Z,19.10
2017-08-18T03:37:10.197Z,19.10
2017-08-18T03:39:38.465Z,18.90
2017-08-18T03:42:05.967Z,18.90
2017-08-18T03:44:33.463Z,18.80
2017-08-18T03:47:00.972Z,18.70
2017-08-18T03:49:28.471Z,18.60
2017-08-18T03:51:55.989Z,18.60
2017-08-18T03:54:23.500Z,18.50
2017-08-18T03:56:51.006Z,18.50
2017-08-18T03:59:18.539Z,18.40
2017-08-18T04:01:46.816Z,18.30
2017-08-18T04:04:14.318Z,18.30
2017-08-18T04:06:41.821Z,18.30
2017-08-18T04:09:09.314Z,18.30
2017-08-18T04:11:36.819Z,18.30
2017-08-18T04:14:04.312Z,18.20
2017-08-18T04:16:32.573Z,18.20
2017-08-18T04:19:00.848Z,18.20
2017-08-18T04:21:29.120Z,18.20
2017-08-18T04:23:57.384Z,18.30
2017-08-18T04:26:24.908Z,18.30
2017-08-18T04:28:52.397Z,18.30
2017-08-18T04:31:19.897Z,18.40
2017-08-18T04:33:47.407Z,18.50
2017-08-18T04:36:14.936Z,18.50
2017-08-18T04:38:42.441Z,18.50
2017-08-18T04:41:09.942Z,18.50
2017-08-18T04:43:37.443Z,18.50
2017-08-18T04:46:04.948Z,18.50
2017-08-18T04:48:32.449Z,18.60
2017-08-18T04:50:59.941Z,18.60
2017-08-18T04:53:28.195Z,18.70
2017-08-18T04:55:55.696Z,18.70
2017-08-18T04:58:23.184Z,18.70
2017-08-18T05:00:50.671Z,18.80
2017-08-18T05:03:18.176Z,18.80
2017-08-18T05:05:45.688Z,18.80
2017-08-18T05:08:13.173Z,18.70
2017-08-18T05:10:40.684Z,18.80
2017-08-18T05:13:08.183Z,18.80
2017-08-18T05:15:35.733Z,18.90
2017-08-18T05:18:04.031Z,18.90
2017-08-18T05:20:31.519Z,18.90
2017-08-18T05:22:59.005Z,18.90
2017-08-18T05:25:26.489Z,18.90
2017-08-18T05:27:54.750Z,18.90
2017-08-18T05:30:22.239Z,18.90
2017-08-18T05:32:49.728Z,18.90
2017-08-18T05:35:17.203Z,18.90
2017-08-18T05:37:44.703Z,18.90
2017-08-18T05:40:12.952Z,18.90
2017-08-18T05:42:40.444Z,18.90
2017-08-18T05:45:07.936Z,19.00
2017-08-18T05:47:35.427Z,19.00
2017-08-18T05:50:02.907Z,19.00
2017-08-18T05:53:08.250Z,19.00
2017-08-18T05:55:36.530Z,19.10
2017-08-18T05:58:04.772Z,19.20
2017-08-18T06:00:32.267Z,19.20
2017-08-18T06:02:59.764Z,19.20
2017-08-18T06:05:27.264Z,19.20
2017-08-18T06:07:54.756Z,19.30
2017-08-18T06:10:22.243Z,19.30
2017-08-18T06:12:49.740Z,19.40
2017-08-18T06:15:18.002Z,19.50
2017-08-18T06:17:45.492Z,19.50
2017-08-18T06:20:12.991Z,19.60
2017-08-18T06:22:40.492Z,19.60
2017-08-18T06:25:08.760Z,19.70
2017-08-18T06:27:36.280Z,19.70
2017-08-18T06:30:03.772Z,19.70
2017-08-18T06:32:31.284Z,19.80
2017-08-18T06:34:58.768Z,19.90
2017-08-18T06:37:26.256Z,19.90
2017-08-18T06:39:53.759Z,19.90
2017-08-18T06:42:21.247Z,20.00
2017-08-18T06:44:48.733Z,20.00
2017-08-18T06:47:16.220Z,20.00
2017-08-18T06:49:43.720Z,20.00
2017-08-18T06:52:11.203Z,19.90
2017-08-18T06:54:38.687Z,19.90
2017-08-18T06:57:06.179Z,20.00
2017-08-18T06:59:33.669Z,20.00
2017-08-18T07:02:01.928Z,20.10
2017-08-18T07:04:29.424Z,20.00
2017-08-18T07:06:56.915Z,20.10
2017-08-18T07:09:24.408Z,20.20
2017-08-18T07:11:51.888Z,20.20
2017-08-18T07:14:19.373Z,20.20
2017-08-18T07:16:46.860Z,20.20
2017-08-18T07:19:14.344Z,20.20
2017-08-18T07:21:41.819Z,20.30
2017-08-18T07:24:09.308Z,20.40
2017-08-18T07:26:36.792Z,20.50
2017-08-18T07:29:04.290Z,20.50
2017-08-18T07:31:32.539Z,20.50
2017-08-18T07:34:00.028Z,20.50
2017-08-18T07:36:27.527Z,20.60
2017-08-18T07:38:55.051Z,20.70
2017-08-18T07:41:22.647Z,20.70
2017-08-18T07:43:50.192Z,20.80
2017-08-18T07:46:17.688Z,20.90
2017-08-18T07:48:45.175Z,21.00
2017-08-18T07:51:12.669Z,21.10
2017-08-18T07:53:40.168Z,21.30
2017-08-18T07:56:07.664Z,21.40
2017-08-18T07:58:35.148Z,21.50
2017-08-18T08:01:02.631Z,21.60
2017-08-18T08:03:30.903Z,21.70
2017-08-18T08:05:58.387Z,21.70
2017-08-18T08:08:25.871Z,21.70
2017-08-18T08:10:53.383Z,21.80
2017-08-18T08:13:20.880Z,21.70
2017-08-18T08:15:48.413Z,21.80
2017-08-18T08:18:16.692Z,21.90
2017-08-18T08:20:44.184Z,21.90
2017-08-18T08:23:11.665Z,21.90
2017-08-18T08:25:39.773Z,22.00
2017-08-18T08:28:07.269Z,22.00
2017-08-18T08:30:34.743Z,22.00
2017-08-18T08:33:02.249Z,21.90
2017-08-18T08:35:30.500Z,21.90
2017-08-18T08:37:57.984Z,21.80
2017-08-18T08:40:26.264Z,21.90
2017-08-18T08:42:53.765Z,21.90
2017-08-18T08:45:21.259Z,22.00
2017-08-18T08:47:48.776Z,22.00
2017-08-18T08:50:16.264Z,22.00
2017-08-18T08:52:43.752Z,22.10
2017-08-18T08:55:12.024Z,22.20
2017-08-18T08:57:40.299Z,22.20
2017-08-18T09:00:08.588Z,22.10
2017-08-18T09:02:36.843Z,22.00
2017-08-18T09:05:04.377Z,22.00
2017-08-18T09:07:31.854Z,21.90
2017-08-18T09:09:59.334Z,21.90
2017-08-18T09:12:27.637Z,21.90
2017-08-18T09:14:55.123Z,21.90
2017-08-18T09:17:22.646Z,21.90
2017-08-18T09:19:50.161Z,21.90
2017-08-18T09:22:17.652Z,21.90
2017-08-18T09:24:45.179Z,21.90
2017-08-18T09:27:12.677Z,21.80
2017-08-18T09:29:40.167Z,21.80
2017-08-18T09:32:07.671Z,21.90
2017-08-18T09:34:35.156Z,21.90
2017-08-18T09:37:02.671Z,21.80
2017-08-18T09:39:30.151Z,21.80
2017-08-18T09:41:57.658Z,21.80
2017-08-18T09:44:25.144Z,21.80
2017-08-18T09:46:52.645Z,21.80
2017-08-18T09:49:31.892Z,21.80
2017-08-18T09:52:11.195Z,21.90
2017-08-18T09:54:50.565Z,21.80
2017-08-18T09:57:29.900Z,21.80
2017-08-18T09:59:57.412Z,21.70
2017-08-18T10:02:24.903Z,21.70
2017-08-18T10:04:52.403Z,21.70
2017-08-18T10:07:19.894Z,21.60
2017-08-18T10:09:47.383Z,21.60
2017-08-18T10:12:14.869Z,21.60
2017-08-18T10:14:42.353Z,21.60
2017-08-18T10:17:09.840Z,21.60
2017-08-18T10:19:37.337Z,21.60
2017-08-18T10:22:04.832Z,21.70
2017-08-18T10:24:33.098Z,21.70
2017-08-18T10:27:00.585Z,21.70
2017-08-18T10:29:28.067Z,21.80
2017-08-18T10:31:55.556Z,21.80
2017-08-18T10:34:23.055Z,21.80
2017-08-18T10:36:50.563Z,21.80
2017-08-18T10:39:18.053Z,21.80
2017-08-18T10:41:45.535Z,21.80
2017-08-18T10:44:13.017Z,21.80
2017-08-18T10:46:40.503Z,21.70
2017-08-18T10:49:07.991Z,21.60
2017-08-18T10:51:35.480Z,21.60
2017-08-18T10:54:03.028Z,21.50
2017-08-18T10:56:30.537Z,21.50
2017-08-18T10:58:58.040Z,21.50
2017-08-18T11:01:25.565Z,21.40
2017-08-18T11:03:53.091Z,21.40
2017-08-18T11:06:20.606Z,21.40
2017-08-18T11:08:48.092Z,21.30
2017-08-18T11:11:15.584Z,21.30
2017-08-18T11:13:43.069Z,21.30
2017-08-18T11:16:10.577Z,21.20
2017-08-18T11:18:38.070Z,21.20
2017-08-18T11:21:06.319Z,21.10
2017-08-18T11:23:33.836Z,21.10
2017-08-18T11:26:01.319Z,21.00
2017-08-18T11:28:28.806Z,21.00
2017-08-18T11:30:56.300Z,21.10
2017-08-18T11:33:23.792Z,21.10
2017-08-18T11:35:51.280Z,21.10
2017-08-18T11:38:18.788Z,21.20
2017-08-18T11:40:46.285Z,21.20
2017-08-18T11:43:13.785Z,21.20
2017-08-18T11:45:41.264Z,21.20
2017-08-18T11:48:08.783Z,21.20
2017-08-18T11:50:36.277Z,21.20
2017-08-18T11:53:03.784Z,21.20
2017-08-18T11:55:31.274Z,21.20
2017-08-18T11:57:58.800Z,21.20
2017-08-18T12:00:27.071Z,21.10
2017-08-18T12:02:54.556Z,21.10
2017-08-18T12:05:22.048Z,21.20
2017-08-18T12:07:50.023Z,21.20
2017-08-18T12:10:17.604Z,21.10
2017-08-18T12:12:45.101Z,21.10
2017-08-18T12:15:12.604Z,21.10
2017-08-18T12:17:40.096Z,21.00
2017-08-18T12:20:08.359Z,21.00
2017-08-18T12:22:35.856Z,21.00
2017-08-18T12:25:03.364Z,21.00
2017-08-18T12:27:30.892Z,21.00
2017-08-18T12:29:58.380Z,21.00
2017-08-18T12:32:25.872Z,21.00
2017-08-18T12:34:54.135Z,21.00
2017-08-18T12:37:21.624Z,21.00
2017-08-18T12:39:49.112Z,20.90
2017-08-18T12:42:16.608Z,20.90
2017-08-18T12:44:44.092Z,20.90
2017-08-18T12:47:11.594Z,20.80
2017-08-18T12:49:39.079Z,20.80
2017-08-18T12:52:06.575Z,20.80
2017-08-18T12:54:34.063Z,20.90
2017-08-18T12:57:01.575Z,20.90
2017-08-18T12:59:29.912Z,20.90
2017-08-18T13:01:57.405Z,20.90
2017-08-18T13:04:25.656Z,21.00
2017-08-18T13:06:53.144Z,21.00
2017-08-18T13:09:20.640Z,21.10
2017-08-18T13:11:48.128Z,21.20
2017-08-18T13:14:15.615Z,21.30
2017-08-18T13:16:43.107Z,21.50
2017-08-18T13:19:10.596Z,21.70
2017-08-18T13:21:38.083Z,21.80
2017-08-18T13:24:06.340Z,22.30
2017-08-18T13:26:33.830Z,22.30
2017-08-18T13:29:01.314Z,22.50
2017-08-18T13:31:28.797Z,22.60
2017-08-18T13:33:56.296Z,22.60
2017-08-18T13:36:23.780Z,22.60
2017-08-18T13:38:51.300Z,22.60
2017-08-18T13:41:19.552Z,22.80
2017-08-18T13:43:47.064Z,22.70
2017-08-18T13:46:14.560Z,22.70
2017-08-18T13:48:42.075Z,22.70
2017-08-18T13:51:09.568Z,22.60
2017-08-18T13:53:37.060Z,22.50
2017-08-18T13:56:05.314Z,22.50
2017-08-18T13:58:32.804Z,22.50
2017-08-18T14:01:01.055Z,22.60
2017-08-18T14:03:28.608Z,22.60
2017-08-18T14:05:56.104Z,22.50
2017-08-18T14:08:23.590Z,22.60
2017-08-18T14:10:51.073Z,22.60
2017-08-18T14:13:18.564Z,22.50
2017-08-18T14:15:46.832Z,22.40
2017-08-18T14:18:15.085Z,22.40
2017-08-18T14:20:42.579Z,22.40
2017-08-18T14:23:10.060Z,22.30
2017-08-18T14:25:43.176Z,22.30
2017-08-18T14:28:10.680Z,22.30
2017-08-18T14:30:38.356Z,22.20
2017-08-18T14:33:06.108Z,22.20
2017-08-18T14:35:33.592Z,22.10
2017-08-18T14:38:01.064Z,22.10
2017-08-18T14:40:28.545Z,22.00
2017-08-18T14:42:56.031Z,22.00
2017-08-18T14:45:23.507Z,22.00
2017-08-18T14:47:50.991Z,22.00
2017-08-18T14:50:18.466Z,21.90
2017-08-18T14:52:45.945Z,21.90
2017-08-18T14:55:13.438Z,21.90
2017-08-18T14:57:40.929Z,21.90
2017-08-18T15:00:08.428Z,21.90
2017-08-18T15:02:35.924Z,21.90
2017-08-18T15:05:03.408Z,22.00
2017-08-18T15:07:30.932Z,22.00
2017-08-18T15:09:58.416Z,22.10
2017-08-18T15:12:25.906Z,22.10
2017-08-18T15:14:54.478Z,22.20
2017-08-18T15:17:21.972Z,22.20
2017-08-18T15:19:49.649Z,22.30
2017-08-18T15:22:17.143Z,22.30
2017-08-18T15:24:44.631Z,22.40
2017-08-18T15:27:13.739Z,22.40
2017-08-18T15:29:41.211Z,22.30
2017-08-18T15:32:08.760Z,22.30
2017-08-18T15:34:36.256Z,22.40
2017-08-18T15:37:03.749Z,22.30
2017-08-18T15:39:31.274Z,22.30
2017-08-18T15:41:58.784Z,22.40
2017-08-18T15:44:26.262Z,22.40
2017-08-18T15:46:53.744Z,22.40
2017-08-18T15:49:22.096Z,22.40
2017-08-18T15:51:49.588Z,22.40
2017-08-18T15:54:17.086Z,22.40
2017-08-18T15:56:44.577Z,22.30
2017-08-18T15:59:12.539Z,22.30
2017-08-18T16:01:40.020Z,22.20
2017-08-18T16:04:07.524Z,22.20
2017-08-18T16:06:35.787Z,22.10
2017-08-18T16:09:03.311Z,22.10
2017-08-18T16:11:30.795Z,22.10
2017-08-18T16:13:58.300Z,22.00
2017-08-18T16:16:25.799Z,22.00
2017-08-18T16:18:53.288Z,21.90
2017-08-18T16:21:21.561Z,21.80
2017-08-18T16:23:49.808Z,21.80
2017-08-18T16:26:17.309Z,21.80
2017-08-18T16:28:44.824Z,21.70
2017-08-18T16:31:12.336Z,21.80
2017-08-18T16:33:39.825Z,21.70
2017-08-18T16:36:07.373Z,21.70
2017-08-18T16:38:34.865Z,21.70
2017-08-18T16:41:02.367Z,21.60
2017-08-18T16:43:29.847Z,21.60
2017-08-18T16:45:57.355Z,21.60
2017-08-18T16:48:24.863Z,21.50
2017-08-18T16:50:52.372Z,21.50
2017-08-18T16:53:20.627Z,21.40
2017-08-18T16:55:48.116Z,21.40
2017-08-18T16:58:15.617Z,21.40
2017-08-18T17:00:43.135Z,21.40
2017-08-18T17:03:10.628Z,21.30
2017-08-18T17:05:38.143Z,21.30
2017-08-18T17:08:05.638Z,21.30
2017-08-18T17:10:33.141Z,21.30
2017-08-18T17:13:00.672Z,21.20
2017-08-18T17:15:28.160Z,21.20
2017-08-18T17:17:55.652Z,21.20
2017-08-18T17:20:23.139Z,21.10
2017-08-18T17:22:50.676Z,21.10
2017-08-18T17:25:18.480Z,21.00
2017-08-18T17:27:46.165Z,20.90
2017-08-18T17:30:13.673Z,20.90
2017-08-18T17:32:41.166Z,20.80
2017-08-18T17:35:09.340Z,20.70
2017-08-18T17:37:37.086Z,20.70
2017-08-18T17:40:04.707Z,20.70
2017-08-18T17:42:32.816Z,20.60
2017-08-18T17:45:00.367Z,20.50
2017-08-18T17:47:27.904Z,20.50
2017-08-18T17:49:56.218Z,20.40
2017-08-18T17:52:23.743Z,20.30
2017-08-18T17:54:51.923Z,20.30
2017-08-18T17:57:19.545Z,20.20
2017-08-18T17:59:47.811Z,20.20
2017-08-18T18:02:15.368Z,20.10
2017-08-18T18:04:42.887Z,20.20
2017-08-18T18:07:10.375Z,20.10
2017-08-18T18:09:37.867Z,20.10
2017-08-18T18:12:05.367Z,20.10
2017-08-18T18:14:32.875Z,20.00
2017-08-18T18:17:00.387Z,20.00
2017-08-18T18:19:27.908Z,19.90
2017-08-18T18:21:55.408Z,19.90
2017-08-18T18:24:22.918Z,19.90
2017-08-18T18:26:50.443Z,19.90
2017-08-18T18:29:17.966Z,19.80
2017-08-18T18:31:45.539Z,19.80
2017-08-18T18:34:13.282Z,19.80
2017-08-18T18:36:40.846Z,19.80
2017-08-18T18:39:08.368Z,19.80
2017-08-18T18:41:35.872Z,19.70
2017-08-18T18:44:04.384Z,19.70
2017-08-18T18:46:31.883Z,19.70
2017-08-18T18:48:59.403Z,19.60
2017-08-18T18:51:26.912Z,19.60
2017-08-18T18:53:54.409Z,19.60
2017-08-18T18:56:22.957Z,19.60
2017-08-18T18:58:50.684Z,19.50
2017-08-18T19:01:20.171Z,19.40
2017-08-18T19:03:48.324Z,19.30
2017-08-18T19:06:16.101Z,19.20
2017-08-18T19:08:44.459Z,19.10
2017-08-18T19:11:12.051Z,19.00
2017-08-18T19:13:39.611Z,19.00
2017-08-18T19:16:08.155Z,18.70
2017-08-18T19:18:36.785Z,18.70
2017-08-18T19:21:05.185Z,18.70
2017-08-18T19:23:42.206Z,18.60
2017-08-18T19:26:16.695Z,18.60
2017-08-18T19:28:54.819Z,18.50
2017-08-18T19:31:26.836Z,18.50
2017-08-18T19:36:57.293Z,18.30
2017-08-18T19:54:01.431Z,18.00
2017-08-18T19:56:30.462Z,17.90
2017-08-18T19:58:58.523Z,18.00
2017-08-18T20:01:26.037Z,17.90
2017-08-18T20:03:53.567Z,17.90
2017-08-18T20:06:21.829Z,18.00
2017-08-18T20:08:49.344Z,18.00
2017-08-18T20:11:16.837Z,18.00
2017-08-18T20:13:44.394Z,18.00
2017-08-18T20:16:12.946Z,17.90
2017-08-18T20:18:40.444Z,17.90
2017-08-18T20:21:07.942Z,17.80
2017-08-18T20:23:35.457Z,17.80
2017-08-18T20:26:03.040Z,17.70
2017-08-18T20:28:30.556Z,17.60
2017-08-18T20:30:58.078Z,17.60
2017-08-18T20:33:26.516Z,17.60
2017-08-18T20:35:56.836Z,17.60
2017-08-18T20:38:24.354Z,17.60
2017-08-18T20:40:51.865Z,17.60
2017-08-18T20:43:20.147Z,17.50
2017-08-18T20:45:48.423Z,17.50
2017-08-18T20:48:16.748Z,17.50
2017-08-18T20:50:44.278Z,17.40
2017-08-18T20:53:11.780Z,17.50
2017-08-18T20:55:39.410Z,17.40
2017-08-18T20:58:06.948Z,17.40
2017-08-18T21:00:35.704Z,17.30
2017-08-18T21:03:05.197Z,17.30
2017-08-18T21:05:33.674Z,17.30
2017-08-18T21:08:01.181Z,17.30
2017-08-18T21:10:28.688Z,17.30
2017-08-18T21:12:56.300Z,17.20
2017-08-18T21:15:23.807Z,17.20
2017-08-18T21:17:51.310Z,17.20
2017-08-18T21:20:18.820Z,17.20
2017-08-18T21:22:46.328Z,17.20
2017-08-18T21:25:13.852Z,17.10
2017-08-18T21:27:41.378Z,17.10
2017-08-18T21:30:09.897Z,17.10
2017-08-18T21:32:37.425Z,17.20
2017-08-18T21:35:04.960Z,17.10
2017-08-18T21:37:32.538Z,17.10
2017-08-18T21:40:00.080Z,17.10
2017-08-18T21:42:27.620Z,17.10
2017-08-18T21:44:55.138Z,17.10
2017-08-18T21:47:23.001Z,17.10
2017-08-18T21:49:50.583Z,17.20
2017-08-18T21:52:18.222Z,17.10
2017-08-18T21:54:45.771Z,17.10
2017-08-18T21:57:13.305Z,17.10
2017-08-18T21:59:40.849Z,17.10
2017-08-18T22:02:08.542Z,17.10
2017-08-18T22:04:36.074Z,17.00
2017-08-18T22:07:03.836Z,17.10
2017-08-18T22:09:31.409Z,17.00
2017-08-18T22:11:58.932Z,17.00
2017-08-18T22:14:26.478Z,17.00
2017-08-18T22:16:54.021Z,16.90
2017-08-18T22:19:21.532Z,16.90
2017-08-18T22:21:49.094Z,16.90
2017-08-18T22:24:18.705Z,16.80
2017-08-18T22:26:46.298Z,16.70
2017-08-18T22:29:14.517Z,16.70
2017-08-18T22:31:42.078Z,16.60
2017-08-18T22:34:09.589Z,16.50
2017-08-18T22:36:37.131Z,16.50
2017-08-18T22:39:04.712Z,16.40
2017-08-18T22:41:32.271Z,16.40
2017-08-18T22:43:59.787Z,16.40
2017-08-18T22:46:27.308Z,16.40
2017-08-18T22:48:54.884Z,16.40
2017-08-18T22:51:22.494Z,16.30
2017-08-18T22:53:50.097Z,16.30
2017-08-18T22:56:17.603Z,16.30
2017-08-18T22:58:45.149Z,16.30
2017-08-18T23:01:12.713Z,16.30
2017-08-18T23:03:40.261Z,16.30
2017-08-18T23:06:07.813Z,16.20
2017-08-18T23:08:35.885Z,16.20
2017-08-18T23:11:03.508Z,16.20
2017-08-18T23:13:31.038Z,16.20
2017-08-18T23:15:58.557Z,16.20
2017-08-18T23:18:26.122Z,16.10
2017-08-18T23:20:53.668Z,16.20
2017-08-18T23:23:21.243Z,16.20
2017-08-18T23:25:48.748Z,16.20
2017-08-18T23:28:16.247Z,16.20
2017-08-18T23:30:43.744Z,16.30
2017-08-18T23:33:11.236Z,16.30
2017-08-18T23:35:38.732Z,16.40
2017-08-18T23:38:06.227Z,16.40
2017-08-18T23:40:33.724Z,16.40
2017-08-18T23:43:01.245Z,16.40
2017-08-18T23:45:28.771Z,16.50
2017-08-18T23:47:56.299Z,16.40
2017-08-18T23:50:23.800Z,16.40
2017-08-18T23:52:51.312Z,16.50
2017-08-18T23:55:18.812Z,16.50
2017-08-18T23:57:46.306Z,16.50
